createdAt,value
2023-02-03T00:00:48.460Z,64.92
2023-02-03T00:02:49.942Z,65.23
2023-02-03T00:04:51.485Z,65.67
2023-02-03T00:06:53.036Z,66.18
2023-02-03T00:08:55.445Z,66.51
2023-02-03T00:10:56.982Z,66.88
2023-02-03T00:12:58.433Z,66.63
2023-02-03T00:14:59.896Z,66.81
2023-02-03T00:17:01.381Z,66.86
2023-02-03T00:19:03.107Z,66.93
2023-02-03T00:21:04.860Z,67.03
2023-02-03T00:23:07.146Z,67.40
2023-02-03T00:25:08.936Z,67.92
2023-02-03T00:27:10.410Z,67.97
2023-02-03T00:29:11.934Z,68.13
2023-02-03T00:31:20.328Z,68.64
2023-02-03T00:33:21.908Z,68.56
2023-02-03T00:35:23.699Z,68.83
2023-02-03T00:37:25.166Z,68.80
2023-02-03T00:39:26.652Z,68.90
2023-02-03T00:41:29.117Z,69.08
2023-02-03T00:43:30.620Z,69.02
2023-02-03T00:45:32.204Z,68.61
2023-02-03T00:47:33.731Z,68.83
2023-02-03T00:49:35.238Z,68.78
2023-02-03T00:51:36.799Z,68.91
2023-02-03T00:53:38.332Z,69.06
2023-02-03T00:55:39.770Z,68.75
2023-02-03T00:57:41.301Z,68.96
2023-02-03T00:59:42.831Z,68.81
2023-02-03T01:01:44.331Z,68.77
2023-02-03T01:03:45.879Z,68.71
2023-02-03T01:05:47.357Z,68.75
2023-02-03T01:07:48.930Z,69.02
2023-02-03T01:09:50.431Z,69.30
2023-02-03T01:11:51.948Z,69.41
2023-02-03T01:13:54.429Z,69.25
2023-02-03T01:15:55.925Z,69.02
2023-02-03T01:17:57.392Z,68.73
2023-02-03T01:19:58.950Z,69.05
2023-02-03T01:22:00.435Z,68.68
2023-02-03T01:24:02.081Z,68.21
2023-02-03T01:26:07.185Z,68.23
2023-02-03T01:28:08.672Z,68.24
2023-02-03T01:30:10.633Z,68.38
2023-02-03T01:32:12.070Z,68.21
2023-02-03T01:34:14.375Z,68.29
2023-02-03T01:36:16.863Z,68.28
2023-02-03T10:11:49.893Z,52.88
2023-02-03T10:14:00.464Z,54.97
2023-02-03T10:16:01.907Z,54.90
2023-02-03T10:18:23.524Z,54.33
2023-02-03T10:20:45.402Z,53.78
2023-02-03T10:22:54.454Z,53.54
2023-02-03T10:25:08.337Z,52.88
2023-02-03T10:27:14.106Z,52.70
2023-02-03T10:29:18.770Z,52.47
2023-02-03T10:31:21.410Z,53.43
2023-02-03T10:33:25.337Z,53.67
2023-02-03T10:35:35.801Z,53.30
2023-02-03T10:37:38.362Z,52.58
2023-02-03T10:39:41.087Z,51.12
2023-02-03T10:41:42.552Z,50.42
2023-02-03T10:43:53.082Z,51.78
2023-02-03T10:45:54.591Z,50.86
2023-02-03T10:47:56.118Z,51.88
2023-02-03T10:49:57.830Z,50.91
2023-02-03T10:52:02.267Z,50.58
2023-02-03T10:54:03.810Z,50.33
2023-02-03T10:56:08.445Z,50.69
2023-02-03T10:58:11.530Z,50.57
2023-02-03T11:00:32.051Z,50.64
2023-02-03T11:02:33.486Z,50.43
2023-02-03T11:04:35.142Z,50.88
2023-02-03T11:06:36.842Z,51.64
2023-02-03T11:08:39.903Z,51.29
2023-02-03T11:10:43.278Z,51.38
2023-02-03T11:12:44.953Z,51.63
2023-02-03T11:14:49.989Z,51.21
2023-02-03T11:16:51.466Z,50.87
2023-02-03T11:18:54.372Z,50.06
2023-02-03T11:20:55.913Z,49.96
2023-02-03T11:22:57.349Z,50.12
2023-02-03T11:24:58.947Z,50.13
2023-02-03T11:27:10.572Z,49.70
2023-02-03T11:29:23.957Z,49.00
2023-02-03T11:31:26.682Z,48.45
2023-02-03T11:33:28.815Z,47.87
2023-02-03T11:35:31.760Z,46.49
2023-02-03T11:37:38.019Z,46.82
2023-02-03T11:39:39.765Z,46.82
2023-02-03T11:41:41.329Z,46.95
2023-02-03T11:43:43.058Z,45.95
2023-02-03T11:45:45.310Z,46.36
2023-02-03T11:47:46.822Z,46.65
2023-02-03T11:49:57.038Z,47.34
2023-02-03T11:52:21.629Z,46.71
2023-02-03T11:54:41.203Z,46.50
2023-02-03T11:56:48.971Z,46.35
2023-02-03T11:58:53.496Z,45.42
2023-02-03T12:00:57.629Z,45.34
2023-02-03T12:03:05.010Z,45.16
2023-02-03T12:05:18.574Z,44.60
2023-02-03T12:07:20.020Z,44.33
2023-02-03T12:09:22.813Z,44.68
2023-02-03T12:11:24.592Z,44.94
2023-02-03T12:13:38.106Z,45.53
2023-02-03T12:15:57.682Z,46.51
2023-02-03T12:18:10.688Z,46.72
2023-02-03T12:20:17.982Z,46.25
2023-02-03T12:22:25.476Z,45.24
2023-02-03T12:24:45.635Z,44.75
2023-02-03T12:27:05.909Z,44.90
2023-02-03T12:29:11.974Z,44.31
2023-02-03T12:31:29.495Z,44.67
2023-02-03T12:33:32.185Z,44.84
2023-02-03T12:35:35.188Z,45.04
2023-02-03T12:37:48.972Z,46.12
2023-02-03T12:39:54.140Z,46.14
2023-02-03T12:41:58.540Z,46.41
2023-02-03T12:44:01.525Z,46.06
2023-02-03T12:46:14.252Z,46.99
2023-02-03T12:48:17.908Z,46.96
2023-02-03T12:50:40.776Z,47.30
2023-02-03T12:52:47.552Z,46.65
2023-02-03T12:54:50.963Z,47.90
2023-02-03T12:56:52.829Z,47.43
2023-02-03T12:59:07.076Z,47.60
2023-02-03T13:01:08.577Z,47.46
2023-02-03T13:03:12.936Z,48.52
2023-02-03T13:05:23.729Z,49.18
2023-02-03T13:07:45.449Z,49.27
2023-02-03T13:09:52.331Z,49.48
2023-02-03T13:12:00.203Z,48.89
2023-02-03T13:14:13.256Z,49.64
2023-02-03T13:16:14.847Z,49.54
2023-02-03T13:18:22.370Z,49.35
2023-02-03T13:20:24.965Z,49.67
2023-02-03T13:22:26.736Z,50.05
2023-02-03T13:24:28.410Z,50.13
2023-02-03T13:26:46.811Z,50.68
2023-02-03T13:28:53.124Z,50.42
2023-02-03T13:30:54.885Z,50.79
2023-02-03T13:32:57.396Z,50.51
2023-02-03T13:35:34.286Z,50.33
2023-02-03T13:37:43.149Z,50.03
2023-02-03T13:40:03.469Z,50.46
2023-02-03T13:42:07.874Z,50.67
2023-02-03T13:44:12.974Z,51.00
2023-02-03T13:46:22.314Z,50.83
2023-02-03T13:48:27.785Z,51.45
2023-02-03T13:50:30.253Z,51.91
2023-02-03T13:52:52.367Z,51.45
2023-02-03T13:54:54.975Z,51.87
2023-02-03T13:57:02.227Z,51.75
2023-02-03T13:59:05.296Z,51.89
2023-02-03T14:01:25.391Z,51.76
2023-02-03T14:03:26.964Z,52.18
2023-02-03T14:05:38.550Z,52.06
2023-02-03T14:07:40.245Z,52.10
2023-02-03T14:09:42.040Z,51.69
2023-02-03T14:11:44.483Z,51.46
2023-02-03T14:13:46.032Z,51.38
2023-02-03T14:15:48.957Z,51.65
2023-02-03T14:17:50.653Z,50.86
2023-02-03T14:19:52.319Z,51.02
2023-02-03T14:22:16.193Z,51.67
2023-02-03T14:24:17.900Z,51.53
2023-02-03T14:26:21.154Z,51.42
2023-02-03T14:28:26.909Z,51.28
2023-02-03T14:30:28.462Z,51.46
2023-02-03T14:32:47.982Z,50.75
2023-02-03T14:34:49.614Z,50.74
2023-02-03T14:36:53.247Z,50.85
2023-02-03T14:38:54.878Z,49.39
2023-02-03T14:40:57.091Z,48.78
2023-02-03T14:43:11.615Z,48.76
2023-02-03T14:45:19.525Z,48.40
2023-02-03T14:47:23.953Z,48.11
2023-02-03T14:49:29.086Z,47.70
2023-02-03T14:51:30.556Z,47.77
2023-02-03T14:53:50.585Z,48.54
2023-02-03T14:55:52.019Z,48.91
2023-02-03T14:57:54.579Z,49.32
2023-02-03T15:00:05.774Z,49.23
2023-02-03T15:02:09.084Z,49.77
2023-02-03T15:04:13.668Z,49.71
2023-02-03T15:06:35.092Z,49.98
2023-02-03T15:08:59.729Z,49.52
2023-02-03T15:11:01.346Z,49.53
2023-02-03T15:13:02.976Z,49.87
2023-02-03T15:15:14.517Z,49.98
2023-02-03T15:17:24.110Z,50.49
2023-02-03T15:19:26.973Z,50.37
2023-02-03T15:21:28.533Z,49.85
2023-02-03T15:23:31.329Z,48.84
2023-02-03T15:25:33.180Z,47.96
2023-02-03T15:27:34.747Z,47.88
2023-02-03T15:29:36.576Z,47.57
2023-02-03T15:31:41.900Z,47.28
2023-02-03T15:33:44.711Z,47.11
2023-02-03T15:35:46.183Z,46.89
2023-02-03T15:37:51.800Z,47.13
2023-02-03T15:39:53.281Z,46.98
2023-02-03T15:41:54.959Z,47.23
2023-02-03T15:43:57.028Z,46.83
2023-02-03T15:46:07.475Z,46.48
2023-02-03T15:48:13.965Z,46.95
2023-02-03T15:50:45.012Z,47.15
2023-02-03T15:52:46.588Z,47.10
2023-02-03T15:54:54.030Z,47.91
2023-02-03T15:56:59.505Z,47.96
2023-02-03T15:59:00.934Z,47.94
2023-02-03T16:01:08.241Z,47.87
2023-02-03T16:03:21.616Z,47.84
2023-02-03T16:05:29.736Z,47.91
2023-02-03T16:07:31.366Z,47.75
2023-02-03T16:09:34.033Z,47.68
2023-02-03T16:11:36.480Z,48.17
2023-02-03T16:13:42.955Z,47.76
2023-02-03T16:15:44.419Z,47.69
2023-02-03T16:17:46.246Z,47.60
2023-02-03T16:19:51.494Z,47.59
2023-02-03T16:21:54.063Z,47.70
2023-02-03T16:23:55.688Z,48.27
2023-02-03T16:26:03.020Z,48.47
2023-02-03T16:28:36.357Z,48.57
2023-02-03T16:30:56.452Z,48.59
2023-02-03T16:33:21.350Z,48.68
2023-02-03T16:35:41.535Z,49.19
2023-02-03T16:38:02.693Z,49.01
2023-02-03T16:40:23.258Z,49.20
2023-02-03T16:42:43.364Z,49.10
2023-02-03T16:45:03.491Z,48.54
2023-02-03T16:47:27.926Z,48.72
2023-02-03T16:49:48.020Z,47.93
2023-02-03T16:51:49.459Z,48.17
2023-02-03T16:53:51.030Z,48.39
2023-02-03T16:55:53.214Z,48.74
2023-02-03T16:57:54.717Z,49.19
2023-02-03T16:59:56.243Z,48.99
2023-02-03T17:01:57.927Z,48.92
2023-02-03T17:03:59.449Z,48.98
2023-02-03T17:06:08.328Z,48.53
2023-02-03T17:08:09.798Z,48.08
2023-02-03T17:10:11.273Z,47.80
2023-02-03T17:12:12.813Z,47.60
2023-02-03T17:14:14.587Z,47.48
2023-02-03T17:16:17.130Z,46.42
2023-02-03T17:18:18.901Z,45.98
2023-02-03T17:20:20.515Z,45.56
2023-02-03T17:22:21.976Z,45.15
2023-02-03T17:24:24.625Z,44.72
2023-02-03T17:26:26.061Z,44.68
2023-02-03T17:28:27.479Z,44.86
2023-02-03T17:30:29.208Z,44.82
2023-02-03T17:32:30.682Z,45.88
2023-02-03T17:34:32.144Z,46.43
2023-02-03T17:36:33.621Z,46.83
2023-02-03T17:54:58.313Z,43.66
2023-02-03T17:56:59.794Z,43.34
2023-02-03T17:59:02.238Z,43.10
2023-02-03T18:01:17.665Z,43.49
2023-02-03T18:03:19.176Z,43.64
2023-02-03T18:05:20.719Z,44.21
2023-02-03T18:07:22.266Z,44.54
2023-02-03T18:09:23.762Z,44.07
2023-02-03T18:11:25.263Z,44.16
2023-02-03T18:13:27.707Z,43.46
2023-02-03T18:15:29.204Z,44.37
2023-02-03T18:17:30.687Z,44.15
2023-02-03T18:19:32.246Z,43.67
2023-02-03T18:21:34.224Z,43.67
2023-02-03T18:23:35.952Z,43.48
2023-02-03T18:25:37.523Z,43.57
2023-02-03T18:27:39.027Z,44.16
2023-02-03T18:29:40.975Z,43.92
2023-02-03T18:31:44.127Z,43.31
2023-02-03T18:33:46.636Z,44.10
2023-02-03T18:35:48.106Z,43.93
2023-02-03T18:37:49.652Z,43.01
2023-02-03T18:39:51.128Z,43.78
2023-02-03T18:41:52.671Z,43.79
2023-02-03T18:43:54.190Z,43.38
2023-02-03T18:45:55.715Z,43.54
2023-02-03T18:47:57.226Z,43.70
2023-02-03T18:49:58.689Z,44.55
2023-02-03T18:52:00.194Z,43.81
2023-02-03T18:54:01.639Z,44.05
2023-02-03T18:56:05.438Z,43.87
2023-02-03T18:58:07.554Z,43.76
2023-02-03T19:00:09.282Z,44.11
2023-02-03T19:02:11.021Z,43.90
2023-02-03T19:04:14.122Z,43.95
2023-02-03T19:06:15.701Z,44.32
2023-02-03T19:08:17.932Z,43.83
2023-02-03T19:10:19.460Z,43.81
2023-02-03T19:12:21.062Z,44.10
2023-02-03T19:14:23.581Z,43.99
2023-02-03T19:16:25.043Z,43.91
2023-02-03T19:18:26.591Z,44.16
2023-02-03T19:20:28.349Z,44.02
2023-02-03T19:22:30.169Z,43.70
2023-02-03T19:24:31.633Z,44.13
2023-02-03T19:26:33.117Z,43.66
2023-02-03T19:28:35.508Z,43.96
2023-02-03T19:30:37.232Z,44.39
2023-02-03T19:32:38.708Z,43.86
2023-02-03T19:34:40.232Z,44.14
2023-02-03T19:36:41.726Z,44.58
2023-02-03T19:38:43.272Z,44.28
2023-02-03T19:40:45.651Z,44.13
2023-02-03T19:42:47.145Z,43.95
2023-02-03T19:44:51.013Z,43.75
2023-02-03T19:46:52.573Z,43.42
2023-02-03T19:48:53.996Z,44.17
2023-02-03T19:50:55.458Z,43.63
2023-02-03T19:52:56.903Z,43.70
2023-02-03T19:54:58.460Z,43.33
2023-02-03T19:56:59.914Z,44.07
2023-02-03T19:59:01.399Z,43.58
2023-02-03T20:01:02.904Z,44.21
2023-02-03T20:03:04.430Z,44.43
2023-02-03T20:05:06.058Z,43.42
2023-02-03T20:07:07.744Z,43.67
2023-02-03T20:09:09.306Z,43.87
2023-02-03T20:11:10.882Z,43.79
2023-02-03T20:13:12.885Z,43.48
2023-02-03T20:15:14.395Z,44.95
2023-02-03T20:17:15.854Z,48.93
2023-02-03T20:19:18.725Z,50.97
2023-02-03T20:21:20.230Z,52.58
2023-02-03T20:23:22.443Z,52.56
2023-02-03T20:25:24.089Z,53.03
2023-02-03T20:27:25.689Z,53.18
2023-02-03T20:29:27.178Z,53.14
2023-02-03T20:31:28.729Z,53.92
2023-02-03T20:33:30.476Z,53.55
2023-02-03T20:35:32.151Z,53.69
2023-02-03T20:37:36.131Z,53.63
2023-02-03T20:39:37.802Z,52.49
2023-02-03T20:41:39.251Z,52.58
2023-02-03T20:43:41.273Z,52.61
2023-02-03T20:45:42.800Z,52.73
2023-02-03T20:47:44.478Z,53.07
2023-02-03T20:49:46.129Z,53.42
2023-02-03T20:51:47.559Z,53.37
2023-02-03T20:53:50.061Z,53.31
2023-02-03T20:55:52.202Z,53.85
2023-02-03T20:57:56.372Z,53.91
2023-02-03T20:59:57.863Z,53.78
2023-02-03T21:02:07.886Z,54.10
2023-02-03T21:04:31.659Z,54.22
2023-02-03T21:06:33.700Z,54.64
2023-02-03T21:08:35.241Z,54.33
2023-02-03T21:10:37.129Z,54.34
2023-02-03T21:12:38.650Z,54.59
2023-02-03T21:14:43.810Z,54.85
2023-02-03T21:16:47.662Z,55.19
2023-02-03T21:18:49.915Z,55.35
2023-02-03T21:20:51.433Z,54.88
2023-02-03T21:22:53.395Z,54.94
2023-02-03T21:24:57.133Z,54.90
2023-02-03T21:26:59.366Z,55.17
2023-02-03T21:29:01.092Z,54.99
2023-02-03T21:31:02.624Z,55.11
2023-02-03T21:33:15.882Z,55.34
2023-02-03T21:35:23.814Z,55.48
2023-02-03T21:37:41.431Z,55.55
2023-02-03T21:39:42.951Z,55.65
2023-02-03T21:41:44.419Z,54.95
2023-02-03T21:43:47.194Z,54.69
2023-02-03T21:45:48.756Z,54.72
2023-02-03T21:47:51.503Z,54.88
2023-02-03T21:49:53.065Z,55.77
2023-02-03T21:51:54.629Z,55.34
2023-02-03T21:53:57.102Z,55.18
2023-02-03T21:56:17.381Z,54.89
2023-02-03T21:58:21.413Z,54.68
2023-02-03T22:00:36.761Z,54.47
2023-02-03T22:02:44.453Z,54.79
2023-02-03T22:04:46.005Z,54.61
2023-02-03T22:06:49.315Z,54.64
2023-02-03T22:08:51.934Z,54.68
2023-02-03T22:10:53.344Z,54.91
2023-02-03T22:12:54.800Z,54.53
2023-02-03T22:14:56.327Z,55.28
2023-02-03T22:16:57.890Z,55.55
2023-02-03T22:18:59.427Z,55.49
2023-02-03T22:21:01.016Z,55.41
2023-02-03T22:23:02.589Z,55.32
2023-02-03T22:25:04.135Z,54.59
2023-02-03T22:27:06.393Z,54.90
2023-02-03T22:29:07.955Z,54.98
2023-02-03T22:31:10.650Z,55.53
2023-02-03T22:33:12.345Z,56.83
2023-02-03T22:35:13.852Z,56.84
2023-02-03T22:37:15.319Z,57.16
2023-02-03T22:39:16.844Z,58.03
2023-02-03T22:41:20.313Z,59.06
2023-02-03T22:43:21.794Z,59.77
2023-02-03T22:45:23.334Z,59.47
2023-02-03T22:47:26.386Z,59.39
2023-02-03T22:49:27.858Z,59.22
2023-02-03T22:51:29.409Z,60.09
2023-02-03T22:53:30.943Z,60.68
2023-02-03T22:55:32.472Z,60.53
2023-02-03T22:57:34.996Z,60.45
2023-02-03T22:59:36.467Z,60.73
2023-02-03T23:01:37.911Z,61.46
2023-02-03T23:03:39.434Z,61.62
2023-02-03T23:05:40.929Z,62.18
2023-02-03T23:07:42.426Z,61.55
2023-02-03T23:09:43.895Z,61.71
2023-02-03T23:11:45.481Z,61.19
2023-02-03T23:13:48.758Z,59.99
2023-02-03T23:15:50.326Z,59.25
2023-02-03T23:17:51.898Z,58.91
2023-02-03T23:19:53.408Z,58.63
2023-02-03T23:21:54.902Z,58.47
2023-02-03T23:23:56.391Z,58.76
2023-02-03T23:25:57.891Z,58.88
2023-02-03T23:27:59.422Z,59.31
2023-02-03T23:30:00.871Z,59.71
2023-02-03T23:32:02.926Z,60.18
2023-02-03T23:34:23.005Z,60.10
2023-02-03T23:36:24.481Z,59.33
2023-02-03T23:38:26.017Z,59.05
2023-02-03T23:40:27.503Z,58.67
2023-02-03T23:42:29.002Z,58.59
2023-02-03T23:44:30.430Z,58.53
2023-02-03T23:46:31.906Z,58.59
2023-02-03T23:48:33.413Z,58.34
2023-02-03T23:50:34.965Z,58.03
2023-02-03T23:52:36.716Z,57.52
2023-02-03T23:54:38.183Z,57.33
2023-02-03T23:56:39.646Z,57.93
2023-02-03T23:58:41.246Z,58.64
